sensor_id;sensor_type;location;lat;lon;timestamp;temperature;humidity
25074;DHT22;13066;52.042;5.648;2022-11-02T00:00:57;14.30;99.90
25074;DHT22;13066;52.042;5.648;2022-11-02T00:03:28;14.30;99.90
25074;DHT22;13066;52.042;5.648;2022-11-02T00:05:56;14.30;99.90
25074;DHT22;13066;52.042;5.648;2022-11-02T00:08:24;14.30;99.90
25074;DHT22;13066;52.042;5.648;2022-11-02T00:10:52;14.30;99.90
25074;DHT22;13066;52.042;5.648;2022-11-02T00:13:20;14.30;99.90
25074;DHT22;13066;52.042;5.648;2022-11-02T00:15:49;14.30;99.90
25074;DHT22;13066;52.042;5.648;2022-11-02T00:18:17;14.30;99.90
25074;DHT22;13066;52.042;5.648;2022-11-02T00:20:45;14.40;99.90
25074;DHT22;13066;52.042;5.648;2022-11-02T00:23:14;14.40;99.90
25074;DHT22;13066;52.042;5.648;2022-11-02T00:25:44;14.40;99.90
25074;DHT22;13066;52.042;5.648;2022-11-02T00:28:14;14.40;99.90
25074;DHT22;13066;52.042;5.648;2022-11-02T00:30:43;14.50;99.90
25074;DHT22;13066;52.042;5.648;2022-11-02T00:33:12;14.50;99.90
25074;DHT22;13066;52.042;5.648;2022-11-02T00:35:41;14.50;99.90
25074;DHT22;13066;52.042;5.648;2022-11-02T00:38:10;14.50;99.90
25074;DHT22;13066;52.042;5.648;2022-11-02T00:40:38;14.50;99.90
25074;DHT22;13066;52.042;5.648;2022-11-02T00:43:06;14.60;99.90
25074;DHT22;13066;52.042;5.648;2022-11-02T00:45:34;14.50;99.90
25074;DHT22;13066;52.042;5.648;2022-11-02T00:48:03;14.50;99.90
25074;DHT22;13066;52.042;5.648;2022-11-02T00:50:33;14.50;99.90
25074;DHT22;13066;52.042;5.648;2022-11-02T00:53:01;14.50;99.90
25074;DHT22;13066;52.042;5.648;2022-11-02T00:55:29;14.50;99.90
25074;DHT22;13066;52.042;5.648;2022-11-02T00:57:57;14.50;99.90
25074;DHT22;13066;52.042;5.648;2022-11-02T01:00:25;14.50;99.90
25074;DHT22;13066;52.042;5.648;2022-11-02T01:02:52;14.40;99.90
25074;DHT22;13066;52.042;5.648;2022-11-02T01:05:20;14.40;99.90
25074;DHT22;13066;52.042;5.648;2022-11-02T01:07:51;14.40;99.90
25074;DHT22;13066;52.042;5.648;2022-11-02T01:10:19;14.40;99.90
25074;DHT22;13066;52.042;5.648;2022-11-02T01:12:47;14.40;99.90
25074;DHT22;13066;52.042;5.648;2022-11-02T01:15:15;14.40;99.90
25074;DHT22;13066;52.042;5.648;2022-11-02T01:17:43;14.40;99.90
25074;DHT22;13066;52.042;5.648;2022-11-02T01:20:11;14.40;99.90
25074;DHT22;13066;52.042;5.648;2022-11-02T01:22:40;14.40;99.90
25074;DHT22;13066;52.042;5.648;2022-11-02T01:25:09;14.40;99.90
25074;DHT22;13066;52.042;5.648;2022-11-02T01:27:37;14.40;99.90
25074;DHT22;13066;52.042;5.648;2022-11-02T01:30:06;14.40;99.90
25074;DHT22;13066;52.042;5.648;2022-11-02T01:32:34;14.40;99.90
25074;DHT22;13066;52.042;5.648;2022-11-02T01:35:03;14.30;99.90
25074;DHT22;13066;52.042;5.648;2022-11-02T01:37:31;14.20;99.90
25074;DHT22;13066;52.042;5.648;2022-11-02T01:39:59;14.10;99.90
25074;DHT22;13066;52.042;5.648;2022-11-02T01:42:28;13.90;99.90
25074;DHT22;13066;52.042;5.648;2022-11-02T01:44:56;13.90;99.90
25074;DHT22;13066;52.042;5.648;2022-11-02T01:47:26;13.70;99.90
25074;DHT22;13066;52.042;5.648;2022-11-02T01:49:56;13.60;99.90
25074;DHT22;13066;52.042;5.648;2022-11-02T01:52:29;13.50;99.90
25074;DHT22;13066;52.042;5.648;2022-11-02T01:55:03;13.50;99.90
25074;DHT22;13066;52.042;5.648;2022-11-02T01:57:35;13.40;99.90
25074;DHT22;13066;52.042;5.648;2022-11-02T02:00:07;13.30;99.90
25074;DHT22;13066;52.042;5.648;2022-11-02T02:02:38;13.30;99.90
25074;DHT22;13066;52.042;5.648;2022-11-02T02:05:08;13.20;99.90
25074;DHT22;13066;52.042;5.648;2022-11-02T02:07:38;13.10;99.90
25074;DHT22;13066;52.042;5.648;2022-11-02T02:10:07;13.00;99.90
25074;DHT22;13066;52.042;5.648;2022-11-02T02:12:38;13.00;99.90
25074;DHT22;13066;52.042;5.648;2022-11-02T02:15:09;12.90;99.90
25074;DHT22;13066;52.042;5.648;2022-11-02T02:17:43;12.90;99.90
25074;DHT22;13066;52.042;5.648;2022-11-02T02:20:25;12.90;99.90
25074;DHT22;13066;52.042;5.648;2022-11-02T02:23:12;12.90;99.90
25074;DHT22;13066;52.042;5.648;2022-11-02T02:25:59;12.80;99.90
25074;DHT22;13066;52.042;5.648;2022-11-02T02:28:36;12.80;99.90
25074;DHT22;13066;52.042;5.648;2022-11-02T02:31:11;12.80;99.90
25074;DHT22;13066;52.042;5.648;2022-11-02T02:33:47;12.80;99.90
25074;DHT22;13066;52.042;5.648;2022-11-02T02:36:20;12.80;99.90
25074;DHT22;13066;52.042;5.648;2022-11-02T02:38:57;12.80;99.90
25074;DHT22;13066;52.042;5.648;2022-11-02T02:41:35;12.80;99.90
25074;DHT22;13066;52.042;5.648;2022-11-02T02:44:08;12.70;99.90
25074;DHT22;13066;52.042;5.648;2022-11-02T02:46:42;12.80;99.90
25074;DHT22;13066;52.042;5.648;2022-11-02T02:49:17;12.70;99.90
25074;DHT22;13066;52.042;5.648;2022-11-02T02:51:46;12.70;99.90
25074;DHT22;13066;52.042;5.648;2022-11-02T02:54:17;12.80;99.90
25074;DHT22;13066;52.042;5.648;2022-11-02T02:56:49;12.80;99.90
25074;DHT22;13066;52.042;5.648;2022-11-02T02:59:22;12.70;99.90
25074;DHT22;13066;52.042;5.648;2022-11-02T03:01:52;12.80;99.90
25074;DHT22;13066;52.042;5.648;2022-11-02T03:04:21;12.80;99.90
25074;DHT22;13066;52.042;5.648;2022-11-02T03:06:53;12.70;99.90
25074;DHT22;13066;52.042;5.648;2022-11-02T03:09:26;12.70;99.90
25074;DHT22;13066;52.042;5.648;2022-11-02T03:12:04;12.70;99.90
25074;DHT22;13066;52.042;5.648;2022-11-02T03:14:44;12.70;99.90
25074;DHT22;13066;52.042;5.648;2022-11-02T03:17:15;12.70;99.90
25074;DHT22;13066;52.042;5.648;2022-11-02T03:19:49;12.80;99.90
25074;DHT22;13066;52.042;5.648;2022-11-02T03:22:25;12.80;99.90
25074;DHT22;13066;52.042;5.648;2022-11-02T03:24:58;12.80;99.90
25074;DHT22;13066;52.042;5.648;2022-11-02T03:27:37;12.70;99.90
25074;DHT22;13066;52.042;5.648;2022-11-02T03:30:11;12.80;99.90
25074;DHT22;13066;52.042;5.648;2022-11-02T03:32:44;12.80;99.90
25074;DHT22;13066;52.042;5.648;2022-11-02T03:35:14;12.80;99.90
25074;DHT22;13066;52.042;5.648;2022-11-02T03:37:46;12.80;99.90
25074;DHT22;13066;52.042;5.648;2022-11-02T03:40:20;12.70;99.90
25074;DHT22;13066;52.042;5.648;2022-11-02T03:42:52;12.70;99.90
25074;DHT22;13066;52.042;5.648;2022-11-02T03:45:24;12.70;99.90
25074;DHT22;13066;52.042;5.648;2022-11-02T03:47:56;12.80;99.90
25074;DHT22;13066;52.042;5.648;2022-11-02T03:50:25;12.80;99.90
25074;DHT22;13066;52.042;5.648;2022-11-02T03:52:56;12.80;99.90
25074;DHT22;13066;52.042;5.648;2022-11-02T03:55:28;12.80;99.90
25074;DHT22;13066;52.042;5.648;2022-11-02T03:57:57;12.80;99.90
25074;DHT22;13066;52.042;5.648;2022-11-02T04:00:30;12.80;99.90
25074;DHT22;13066;52.042;5.648;2022-11-02T04:03:00;12.80;99.90
25074;DHT22;13066;52.042;5.648;2022-11-02T04:05:31;12.90;99.90
25074;DHT22;13066;52.042;5.648;2022-11-02T04:07:59;12.80;99.90
25074;DHT22;13066;52.042;5.648;2022-11-02T04:10:45;12.90;99.90
25074;DHT22;13066;52.042;5.648;2022-11-02T04:13:31;12.80;99.90
25074;DHT22;13066;52.042;5.648;2022-11-02T04:16:18;12.80;99.90
25074;DHT22;13066;52.042;5.648;2022-11-02T04:18:53;12.80;99.90
25074;DHT22;13066;52.042;5.648;2022-11-02T04:21:39;12.80;99.90
25074;DHT22;13066;52.042;5.648;2022-11-02T04:24:27;12.80;99.90
25074;DHT22;13066;52.042;5.648;2022-11-02T04:27:13;12.80;99.90
25074;DHT22;13066;52.042;5.648;2022-11-02T04:29:46;12.80;99.90
25074;DHT22;13066;52.042;5.648;2022-11-02T04:32:15;12.80;99.90
25074;DHT22;13066;52.042;5.648;2022-11-02T04:35:05;12.80;99.90
25074;DHT22;13066;52.042;5.648;2022-11-02T04:37:37;12.90;99.90
25074;DHT22;13066;52.042;5.648;2022-11-02T04:40:37;12.90;99.90
25074;DHT22;13066;52.042;5.648;2022-11-02T04:43:05;12.90;99.90
25074;DHT22;13066;52.042;5.648;2022-11-02T04:45:33;12.90;99.90
25074;DHT22;13066;52.042;5.648;2022-11-02T04:48:04;12.90;99.90
25074;DHT22;13066;52.042;5.648;2022-11-02T04:50:33;13.00;99.90
25074;DHT22;13066;52.042;5.648;2022-11-02T04:53:02;13.10;99.90
25074;DHT22;13066;52.042;5.648;2022-11-02T04:55:30;13.10;99.90
25074;DHT22;13066;52.042;5.648;2022-11-02T04:57:58;13.10;99.90
25074;DHT22;13066;52.042;5.648;2022-11-02T05:00:27;13.10;99.90
25074;DHT22;13066;52.042;5.648;2022-11-02T05:02:55;13.10;99.90
25074;DHT22;13066;52.042;5.648;2022-11-02T05:05:25;13.20;99.90
25074;DHT22;13066;52.042;5.648;2022-11-02T05:07:52;13.20;99.90
25074;DHT22;13066;52.042;5.648;2022-11-02T05:10:21;13.20;99.90
25074;DHT22;13066;52.042;5.648;2022-11-02T05:12:55;13.20;99.90
25074;DHT22;13066;52.042;5.648;2022-11-02T05:15:24;13.20;99.90
25074;DHT22;13066;52.042;5.648;2022-11-02T05:17:51;13.30;99.90
25074;DHT22;13066;52.042;5.648;2022-11-02T05:20:20;13.20;99.90
25074;DHT22;13066;52.042;5.648;2022-11-02T05:22:49;13.20;99.90
25074;DHT22;13066;52.042;5.648;2022-11-02T05:25:17;13.20;99.90
25074;DHT22;13066;52.042;5.648;2022-11-02T05:27:45;13.20;99.90
25074;DHT22;13066;52.042;5.648;2022-11-02T05:30:14;13.20;99.90
25074;DHT22;13066;52.042;5.648;2022-11-02T05:32:42;13.30;99.90
25074;DHT22;13066;52.042;5.648;2022-11-02T05:35:09;13.30;99.90
25074;DHT22;13066;52.042;5.648;2022-11-02T05:37:37;13.30;99.90
25074;DHT22;13066;52.042;5.648;2022-11-02T05:40:08;13.30;99.90
25074;DHT22;13066;52.042;5.648;2022-11-02T05:42:37;13.30;99.90
25074;DHT22;13066;52.042;5.648;2022-11-02T05:45:05;13.30;99.90
25074;DHT22;13066;52.042;5.648;2022-11-02T05:47:33;13.30;99.90
25074;DHT22;13066;52.042;5.648;2022-11-02T05:50:01;13.30;99.90
25074;DHT22;13066;52.042;5.648;2022-11-02T05:52:29;13.30;99.90
25074;DHT22;13066;52.042;5.648;2022-11-02T05:54:57;13.30;99.90
25074;DHT22;13066;52.042;5.648;2022-11-02T05:57:26;13.20;99.90
25074;DHT22;13066;52.042;5.648;2022-11-02T05:59:54;13.30;99.90
25074;DHT22;13066;52.042;5.648;2022-11-02T06:02:22;13.20;99.90
25074;DHT22;13066;52.042;5.648;2022-11-02T06:04:51;13.20;99.90
25074;DHT22;13066;52.042;5.648;2022-11-02T06:07:19;13.30;99.90
25074;DHT22;13066;52.042;5.648;2022-11-02T06:09:47;13.20;99.90
25074;DHT22;13066;52.042;5.648;2022-11-02T06:12:15;13.20;99.90
25074;DHT22;13066;52.042;5.648;2022-11-02T06:14:45;13.20;99.90
25074;DHT22;13066;52.042;5.648;2022-11-02T06:17:12;13.10;99.90
25074;DHT22;13066;52.042;5.648;2022-11-02T06:19:40;13.10;99.90
25074;DHT22;13066;52.042;5.648;2022-11-02T06:22:08;13.00;99.90
25074;DHT22;13066;52.042;5.648;2022-11-02T06:24:36;13.00;99.90
25074;DHT22;13066;52.042;5.648;2022-11-02T06:27:04;13.00;99.90
25074;DHT22;13066;52.042;5.648;2022-11-02T06:29:32;13.00;99.90
25074;DHT22;13066;52.042;5.648;2022-11-02T06:32:02;13.00;99.90
25074;DHT22;13066;52.042;5.648;2022-11-02T06:34:30;13.00;99.90
25074;DHT22;13066;52.042;5.648;2022-11-02T06:36:58;13.00;99.90
25074;DHT22;13066;52.042;5.648;2022-11-02T06:39:26;13.00;99.90
25074;DHT22;13066;52.042;5.648;2022-11-02T06:41:54;12.90;99.90
25074;DHT22;13066;52.042;5.648;2022-11-02T06:44:22;12.90;99.90
25074;DHT22;13066;52.042;5.648;2022-11-02T06:46:50;12.90;99.90
25074;DHT22;13066;52.042;5.648;2022-11-02T06:49:19;12.90;99.90
25074;DHT22;13066;52.042;5.648;2022-11-02T06:51:49;12.90;99.90
25074;DHT22;13066;52.042;5.648;2022-11-02T06:54:17;12.90;99.90
25074;DHT22;13066;52.042;5.648;2022-11-02T06:56:45;12.90;99.90
25074;DHT22;13066;52.042;5.648;2022-11-02T06:59:13;12.90;99.90
25074;DHT22;13066;52.042;5.648;2022-11-02T07:01:41;12.90;99.90
25074;DHT22;13066;52.042;5.648;2022-11-02T07:04:09;12.90;99.90
25074;DHT22;13066;52.042;5.648;2022-11-02T07:06:39;12.90;99.90
25074;DHT22;13066;52.042;5.648;2022-11-02T07:09:07;12.90;99.90
25074;DHT22;13066;52.042;5.648;2022-11-02T07:11:35;12.90;99.90
25074;DHT22;13066;52.042;5.648;2022-11-02T07:14:03;12.90;99.90
25074;DHT22;13066;52.042;5.648;2022-11-02T07:16:31;12.90;99.90
25074;DHT22;13066;52.042;5.648;2022-11-02T07:18:59;12.90;99.90
25074;DHT22;13066;52.042;5.648;2022-11-02T07:21:27;12.90;99.90
25074;DHT22;13066;52.042;5.648;2022-11-02T07:23:56;12.90;99.90
25074;DHT22;13066;52.042;5.648;2022-11-02T07:26:24;13.00;99.90
25074;DHT22;13066;52.042;5.648;2022-11-02T07:28:53;13.00;99.90
25074;DHT22;13066;52.042;5.648;2022-11-02T07:31:25;13.00;99.90
25074;DHT22;13066;52.042;5.648;2022-11-02T07:33:53;13.00;99.90
25074;DHT22;13066;52.042;5.648;2022-11-02T07:36:21;13.00;99.90
25074;DHT22;13066;52.042;5.648;2022-11-02T07:38:49;13.10;99.90
25074;DHT22;13066;52.042;5.648;2022-11-02T07:41:18;13.10;99.90
25074;DHT22;13066;52.042;5.648;2022-11-02T07:43:46;13.10;99.90
25074;DHT22;13066;52.042;5.648;2022-11-02T07:46:14;13.10;99.90
25074;DHT22;13066;52.042;5.648;2022-11-02T07:48:42;13.10;99.90
25074;DHT22;13066;52.042;5.648;2022-11-02T07:51:10;13.10;99.90
25074;DHT22;13066;52.042;5.648;2022-11-02T07:53:38;13.10;99.90
25074;DHT22;13066;52.042;5.648;2022-11-02T07:56:06;13.10;99.90
25074;DHT22;13066;52.042;5.648;2022-11-02T07:58:36;13.00;99.90
25074;DHT22;13066;52.042;5.648;2022-11-02T08:01:04;13.00;99.90
25074;DHT22;13066;52.042;5.648;2022-11-02T08:03:32;13.00;99.90
25074;DHT22;13066;52.042;5.648;2022-11-02T08:06:00;13.00;99.90
25074;DHT22;13066;52.042;5.648;2022-11-02T08:08:29;13.00;99.90
25074;DHT22;13066;52.042;5.648;2022-11-02T08:11:03;12.90;99.90
25074;DHT22;13066;52.042;5.648;2022-11-02T08:13:31;13.00;99.90
25074;DHT22;13066;52.042;5.648;2022-11-02T08:16:01;13.00;99.90
25074;DHT22;13066;52.042;5.648;2022-11-02T08:18:29;13.00;99.90
25074;DHT22;13066;52.042;5.648;2022-11-02T08:20:58;13.00;99.90
25074;DHT22;13066;52.042;5.648;2022-11-02T08:23:27;12.90;99.90
25074;DHT22;13066;52.042;5.648;2022-11-02T08:25:57;13.00;99.90
25074;DHT22;13066;52.042;5.648;2022-11-02T08:28:27;13.00;99.90
25074;DHT22;13066;52.042;5.648;2022-11-02T08:30:57;13.00;99.90
25074;DHT22;13066;52.042;5.648;2022-11-02T08:33:27;13.00;99.90
25074;DHT22;13066;52.042;5.648;2022-11-02T08:36:00;13.00;99.90
25074;DHT22;13066;52.042;5.648;2022-11-02T08:38:29;12.90;99.90
25074;DHT22;13066;52.042;5.648;2022-11-02T08:40:57;12.90;99.90
25074;DHT22;13066;52.042;5.648;2022-11-02T08:43:25;13.00;99.90
25074;DHT22;13066;52.042;5.648;2022-11-02T08:45:56;13.00;99.90
25074;DHT22;13066;52.042;5.648;2022-11-02T08:48:43;13.10;99.90
25074;DHT22;13066;52.042;5.648;2022-11-02T08:51:11;13.10;99.90
25074;DHT22;13066;52.042;5.648;2022-11-02T08:53:40;13.10;99.90
25074;DHT22;13066;52.042;5.648;2022-11-02T08:56:12;13.10;99.90
25074;DHT22;13066;52.042;5.648;2022-11-02T08:58:41;13.20;99.90
25074;DHT22;13066;52.042;5.648;2022-11-02T09:01:09;13.20;99.90
25074;DHT22;13066;52.042;5.648;2022-11-02T09:03:37;13.20;99.90
25074;DHT22;13066;52.042;5.648;2022-11-02T09:06:06;13.30;99.90
25074;DHT22;13066;52.042;5.648;2022-11-02T09:08:34;13.30;99.90
25074;DHT22;13066;52.042;5.648;2022-11-02T09:11:03;13.30;99.90
25074;DHT22;13066;52.042;5.648;2022-11-02T09:13:32;13.30;99.90
25074;DHT22;13066;52.042;5.648;2022-11-02T09:16:00;13.30;99.90
25074;DHT22;13066;52.042;5.648;2022-11-02T09:18:28;13.30;99.90
25074;DHT22;13066;52.042;5.648;2022-11-02T09:21:00;13.30;99.90
25074;DHT22;13066;52.042;5.648;2022-11-02T09:23:30;13.30;99.90
25074;DHT22;13066;52.042;5.648;2022-11-02T09:25:58;13.30;99.90
25074;DHT22;13066;52.042;5.648;2022-11-02T09:28:26;13.30;99.90
25074;DHT22;13066;52.042;5.648;2022-11-02T09:30:54;13.30;99.90
25074;DHT22;13066;52.042;5.648;2022-11-02T09:33:22;13.30;99.90
25074;DHT22;13066;52.042;5.648;2022-11-02T09:35:50;13.30;99.90
25074;DHT22;13066;52.042;5.648;2022-11-02T09:38:18;13.40;99.90
25074;DHT22;13066;52.042;5.648;2022-11-02T09:40:53;13.40;99.90
25074;DHT22;13066;52.042;5.648;2022-11-02T09:43:37;13.40;99.90
25074;DHT22;13066;52.042;5.648;2022-11-02T09:46:08;13.40;99.90
25074;DHT22;13066;52.042;5.648;2022-11-02T09:48:40;13.50;99.90
25074;DHT22;13066;52.042;5.648;2022-11-02T09:51:12;13.50;99.90
25074;DHT22;13066;52.042;5.648;2022-11-02T09:53:49;13.50;99.90
25074;DHT22;13066;52.042;5.648;2022-11-02T09:56:19;13.50;99.90
25074;DHT22;13066;52.042;5.648;2022-11-02T09:58:50;13.50;99.90
25074;DHT22;13066;52.042;5.648;2022-11-02T10:01:32;13.60;99.90
25074;DHT22;13066;52.042;5.648;2022-11-02T10:04:26;13.70;99.90
25074;DHT22;13066;52.042;5.648;2022-11-02T10:07:04;13.80;99.90
25074;DHT22;13066;52.042;5.648;2022-11-02T10:09:39;13.80;99.90
25074;DHT22;13066;52.042;5.648;2022-11-02T10:12:14;13.80;99.90
25074;DHT22;13066;52.042;5.648;2022-11-02T10:14:50;13.80;99.90
25074;DHT22;13066;52.042;5.648;2022-11-02T10:17:22;13.90;99.90
25074;DHT22;13066;52.042;5.648;2022-11-02T10:19:54;13.90;99.90
25074;DHT22;13066;52.042;5.648;2022-11-02T10:22:26;13.90;99.90
25074;DHT22;13066;52.042;5.648;2022-11-02T10:24:56;14.00;99.90
25074;DHT22;13066;52.042;5.648;2022-11-02T10:27:28;14.00;99.90
25074;DHT22;13066;52.042;5.648;2022-11-02T10:30:02;14.00;99.90
25074;DHT22;13066;52.042;5.648;2022-11-02T10:32:33;14.10;99.90
25074;DHT22;13066;52.042;5.648;2022-11-02T10:35:04;14.10;99.90
25074;DHT22;13066;52.042;5.648;2022-11-02T10:38:05;14.20;99.90
25074;DHT22;13066;52.042;5.648;2022-11-02T10:40:52;14.20;99.90
25074;DHT22;13066;52.042;5.648;2022-11-02T10:43:37;14.20;99.90
25074;DHT22;13066;52.042;5.648;2022-11-02T10:46:17;14.20;99.90
25074;DHT22;13066;52.042;5.648;2022-11-02T10:48:57;14.30;99.90
25074;DHT22;13066;52.042;5.648;2022-11-02T10:51:28;14.30;99.90
25074;DHT22;13066;52.042;5.648;2022-11-02T10:53:56;14.30;99.90
25074;DHT22;13066;52.042;5.648;2022-11-02T10:56:29;14.30;99.90
25074;DHT22;13066;52.042;5.648;2022-11-02T10:59:02;14.40;99.90
25074;DHT22;13066;52.042;5.648;2022-11-02T11:01:35;14.40;99.90
25074;DHT22;13066;52.042;5.648;2022-11-02T11:04:05;14.40;99.90
25074;DHT22;13066;52.042;5.648;2022-11-02T11:06:36;14.50;99.90
25074;DHT22;13066;52.042;5.648;2022-11-02T11:09:11;14.50;99.90
25074;DHT22;13066;52.042;5.648;2022-11-02T11:11:45;14.50;99.90
25074;DHT22;13066;52.042;5.648;2022-11-02T11:14:21;14.60;99.90
25074;DHT22;13066;52.042;5.648;2022-11-02T11:17:14;14.60;99.90
25074;DHT22;13066;52.042;5.648;2022-11-02T11:20:05;14.70;99.90
25074;DHT22;13066;52.042;5.648;2022-11-02T11:22:35;14.80;99.90
25074;DHT22;13066;52.042;5.648;2022-11-02T11:25:21;14.90;99.90
25074;DHT22;13066;52.042;5.648;2022-11-02T11:27:54;14.90;99.90
25074;DHT22;13066;52.042;5.648;2022-11-02T11:30:25;14.90;99.90
25074;DHT22;13066;52.042;5.648;2022-11-02T11:33:15;14.90;99.90
25074;DHT22;13066;52.042;5.648;2022-11-02T11:35:47;14.90;99.90
25074;DHT22;13066;52.042;5.648;2022-11-02T11:38:18;15.00;99.90
25074;DHT22;13066;52.042;5.648;2022-11-02T11:40:49;15.00;99.80
25074;DHT22;13066;52.042;5.648;2022-11-02T11:43:22;15.00;99.90
25074;DHT22;13066;52.042;5.648;2022-11-02T11:45:56;15.10;99.70
25074;DHT22;13066;52.042;5.648;2022-11-02T11:48:34;15.10;99.50
25074;DHT22;13066;52.042;5.648;2022-11-02T11:51:23;15.10;99.30
25074;DHT22;13066;52.042;5.648;2022-11-02T11:54:20;15.10;99.30
25074;DHT22;13066;52.042;5.648;2022-11-02T11:56:50;15.10;98.90
25074;DHT22;13066;52.042;5.648;2022-11-02T11:59:21;15.10;98.90
25074;DHT22;13066;52.042;5.648;2022-11-02T12:01:53;15.10;98.60
25074;DHT22;13066;52.042;5.648;2022-11-02T12:04:30;15.10;98.30
25074;DHT22;13066;52.042;5.648;2022-11-02T12:07:14;15.10;98.30
25074;DHT22;13066;52.042;5.648;2022-11-02T12:09:51;15.10;98.50
25074;DHT22;13066;52.042;5.648;2022-11-02T12:12:28;15.20;98.50
25074;DHT22;13066;52.042;5.648;2022-11-02T12:15:08;15.10;98.40
25074;DHT22;13066;52.042;5.648;2022-11-02T12:17:50;15.20;98.30
25074;DHT22;13066;52.042;5.648;2022-11-02T12:20:40;15.20;98.20
25074;DHT22;13066;52.042;5.648;2022-11-02T12:23:26;15.20;98.20
25074;DHT22;13066;52.042;5.648;2022-11-02T12:26:09;15.20;98.10
25074;DHT22;13066;52.042;5.648;2022-11-02T12:28:46;15.20;98.00
25074;DHT22;13066;52.042;5.648;2022-11-02T12:31:26;15.20;97.90
25074;DHT22;13066;52.042;5.648;2022-11-02T12:34:12;15.20;98.00
25074;DHT22;13066;52.042;5.648;2022-11-02T12:36:53;15.30;97.30
25074;DHT22;13066;52.042;5.648;2022-11-02T12:39:56;15.30;97.30
25074;DHT22;13066;52.042;5.648;2022-11-02T12:42:29;15.40;97.50
25074;DHT22;13066;52.042;5.648;2022-11-02T12:45:10;15.40;97.10
25074;DHT22;13066;52.042;5.648;2022-11-02T12:47:54;15.50;96.80
25074;DHT22;13066;52.042;5.648;2022-11-02T12:50:34;15.50;96.50
25074;DHT22;13066;52.042;5.648;2022-11-02T12:53:19;15.60;96.30
25074;DHT22;13066;52.042;5.648;2022-11-02T12:55:50;15.60;96.20
25074;DHT22;13066;52.042;5.648;2022-11-02T12:58:20;15.60;95.90
25074;DHT22;13066;52.042;5.648;2022-11-02T13:00:54;15.60;95.90
25074;DHT22;13066;52.042;5.648;2022-11-02T13:03:32;15.60;95.80
25074;DHT22;13066;52.042;5.648;2022-11-02T13:06:07;15.60;95.70
25074;DHT22;13066;52.042;5.648;2022-11-02T13:08:42;15.60;95.30
25074;DHT22;13066;52.042;5.648;2022-11-02T13:11:15;15.60;95.00
25074;DHT22;13066;52.042;5.648;2022-11-02T13:13:48;15.60;94.80
25074;DHT22;13066;52.042;5.648;2022-11-02T13:16:23;15.50;94.70
25074;DHT22;13066;52.042;5.648;2022-11-02T13:18:54;15.50;94.80
25074;DHT22;13066;52.042;5.648;2022-11-02T13:21:31;15.50;95.00
25074;DHT22;13066;52.042;5.648;2022-11-02T13:24:12;15.50;94.50
25074;DHT22;13066;52.042;5.648;2022-11-02T13:26:43;15.50;94.40
25074;DHT22;13066;52.042;5.648;2022-11-02T13:29:27;15.50;94.50
25074;DHT22;13066;52.042;5.648;2022-11-02T13:32:02;15.50;94.40
25074;DHT22;13066;52.042;5.648;2022-11-02T13:34:35;15.50;94.20
25074;DHT22;13066;52.042;5.648;2022-11-02T13:37:11;15.50;94.00
25074;DHT22;13066;52.042;5.648;2022-11-02T13:39:44;15.50;94.10
25074;DHT22;13066;52.042;5.648;2022-11-02T13:42:27;15.50;94.30
25074;DHT22;13066;52.042;5.648;2022-11-02T13:45:13;15.50;94.20
25074;DHT22;13066;52.042;5.648;2022-11-02T13:48:15;15.50;94.00
25074;DHT22;13066;52.042;5.648;2022-11-02T13:50:48;15.50;94.10
25074;DHT22;13066;52.042;5.648;2022-11-02T13:53:21;15.50;94.10
25074;DHT22;13066;52.042;5.648;2022-11-02T13:55:53;15.50;94.30
25074;DHT22;13066;52.042;5.648;2022-11-02T13:58:25;15.50;94.70
25074;DHT22;13066;52.042;5.648;2022-11-02T14:00:58;15.50;94.70
25074;DHT22;13066;52.042;5.648;2022-11-02T14:03:29;15.50;94.80
25074;DHT22;13066;52.042;5.648;2022-11-02T14:06:00;15.50;94.80
25074;DHT22;13066;52.042;5.648;2022-11-02T14:08:34;15.50;94.80
25074;DHT22;13066;52.042;5.648;2022-11-02T14:14:14;15.40;95.00
25074;DHT22;13066;52.042;5.648;2022-11-02T14:16:45;15.40;95.20
25074;DHT22;13066;52.042;5.648;2022-11-02T14:19:21;15.40;95.50
25074;DHT22;13066;52.042;5.648;2022-11-02T14:22:07;15.40;95.50
25074;DHT22;13066;52.042;5.648;2022-11-02T14:27:38;15.40;95.80
25074;DHT22;13066;52.042;5.648;2022-11-02T14:33:06;15.40;96.20
25074;DHT22;13066;52.042;5.648;2022-11-02T14:35:39;15.30;96.20
25074;DHT22;13066;52.042;5.648;2022-11-02T14:38:35;15.40;96.30
25074;DHT22;13066;52.042;5.648;2022-11-02T14:41:33;15.40;96.30
25074;DHT22;13066;52.042;5.648;2022-11-02T14:44:32;15.40;96.40
25074;DHT22;13066;52.042;5.648;2022-11-02T14:47:06;15.50;96.60
25074;DHT22;13066;52.042;5.648;2022-11-02T14:49:38;15.40;96.50
25074;DHT22;13066;52.042;5.648;2022-11-02T14:52:20;15.50;96.50
25074;DHT22;13066;52.042;5.648;2022-11-02T14:54:52;15.50;96.90
25074;DHT22;13066;52.042;5.648;2022-11-02T14:57:27;15.50;96.50
25074;DHT22;13066;52.042;5.648;2022-11-02T14:59:57;15.50;96.60
25074;DHT22;13066;52.042;5.648;2022-11-02T15:02:30;15.50;96.40
25074;DHT22;13066;52.042;5.648;2022-11-02T15:05:07;15.50;96.30
25074;DHT22;13066;52.042;5.648;2022-11-02T15:07:37;15.40;96.20
25074;DHT22;13066;52.042;5.648;2022-11-02T15:10:40;15.40;96.20
25074;DHT22;13066;52.042;5.648;2022-11-02T15:13:31;15.40;96.20
25074;DHT22;13066;52.042;5.648;2022-11-02T15:16:20;15.30;96.30
25074;DHT22;13066;52.042;5.648;2022-11-02T15:18:49;15.30;96.40
25074;DHT22;13066;52.042;5.648;2022-11-02T15:21:34;15.30;96.50
25074;DHT22;13066;52.042;5.648;2022-11-02T15:24:13;15.20;96.50
25074;DHT22;13066;52.042;5.648;2022-11-02T15:26:48;15.20;96.70
25074;DHT22;13066;52.042;5.648;2022-11-02T15:29:31;15.20;96.90
25074;DHT22;13066;52.042;5.648;2022-11-02T15:32:02;15.20;97.00
25074;DHT22;13066;52.042;5.648;2022-11-02T15:34:35;15.10;97.00
25074;DHT22;13066;52.042;5.648;2022-11-02T15:37:03;15.00;97.40
25074;DHT22;13066;52.042;5.648;2022-11-02T15:39:32;14.90;97.50
25074;DHT22;13066;52.042;5.648;2022-11-02T15:42:10;14.90;97.60
25074;DHT22;13066;52.042;5.648;2022-11-02T15:45:16;14.90;97.80
25074;DHT22;13066;52.042;5.648;2022-11-02T15:48:15;14.90;97.90
25074;DHT22;13066;52.042;5.648;2022-11-02T15:50:53;14.80;98.50
25074;DHT22;13066;52.042;5.648;2022-11-02T15:56:42;14.90;99.50
25074;DHT22;13066;52.042;5.648;2022-11-02T16:02:26;14.90;99.90
25074;DHT22;13066;52.042;5.648;2022-11-02T16:04:55;14.90;99.90
25074;DHT22;13066;52.042;5.648;2022-11-02T16:07:25;14.90;99.90
25074;DHT22;13066;52.042;5.648;2022-11-02T16:10:21;14.90;99.90
25074;DHT22;13066;52.042;5.648;2022-11-02T16:12:57;15.00;99.90
25074;DHT22;13066;52.042;5.648;2022-11-02T16:15:26;15.00;99.90
25074;DHT22;13066;52.042;5.648;2022-11-02T16:17:56;14.90;99.90
25074;DHT22;13066;52.042;5.648;2022-11-02T16:20:26;14.90;99.90
25074;DHT22;13066;52.042;5.648;2022-11-02T16:22:56;14.90;99.90